createdAt,value
2022-08-26T00:03:18.519Z,40.74
2022-08-26T00:08:21.276Z,40.09
2022-08-26T00:13:23.483Z,40.40
2022-08-26T00:18:25.942Z,40.15
2022-08-26T00:23:28.861Z,40.79
2022-08-26T00:28:31.371Z,40.56
2022-08-26T00:33:33.600Z,40.45
2022-08-26T00:38:37.865Z,40.66
2022-08-26T00:43:47.615Z,41.73
2022-08-26T00:48:53.952Z,41.52
2022-08-26T00:54:07.381Z,41.92
2022-08-26T00:59:14.845Z,42.15
2022-08-26T01:04:22.717Z,41.80
2022-08-26T01:09:25.654Z,42.89
2022-08-26T01:14:32.734Z,43.94
2022-08-26T01:19:48.848Z,42.84
2022-08-26T01:24:52.103Z,43.25
2022-08-26T01:29:55.962Z,43.34
2022-08-26T01:34:58.108Z,43.19
2022-08-26T01:40:01.006Z,44.21
2022-08-26T01:45:25.579Z,43.44
2022-08-26T01:50:31.963Z,44.80
2022-08-26T01:55:35.689Z,44.89
2022-08-26T02:00:38.650Z,44.42
2022-08-26T02:05:40.957Z,44.33
2022-08-26T02:10:45.793Z,44.38
2022-08-26T02:15:49.232Z,45.16
2022-08-26T02:20:54.402Z,45.19
2022-08-26T02:26:05.839Z,45.68
2022-08-26T02:31:08.183Z,45.67
2022-08-26T02:36:13.526Z,46.41
2022-08-26T02:41:18.139Z,45.26
2022-08-26T02:46:21.330Z,45.01
2022-08-26T02:51:30.157Z,45.45
2022-08-26T02:56:36.071Z,45.30
2022-08-26T03:01:39.064Z,45.51
2022-08-26T03:06:41.883Z,45.92
2022-08-26T03:11:44.121Z,45.99
2022-08-26T03:16:48.504Z,45.99
2022-08-26T03:21:52.506Z,45.46
2022-08-26T03:26:54.789Z,46.27
2022-08-26T03:31:57.252Z,45.27
2022-08-26T03:37:00.133Z,45.59
2022-08-26T03:42:02.266Z,45.16
2022-08-26T03:47:07.169Z,44.98
2022-08-26T03:52:09.399Z,44.69
2022-08-26T03:57:12.053Z,44.39
2022-08-26T04:02:14.219Z,44.44
2022-08-26T04:07:18.307Z,43.46
2022-08-26T04:12:21.078Z,43.12
2022-08-26T04:17:25.791Z,42.75
2022-08-26T04:22:28.352Z,42.93
2022-08-26T04:27:31.569Z,42.66
2022-08-26T04:32:33.706Z,41.39
2022-08-26T04:37:36.112Z,41.04
2022-08-26T04:42:38.316Z,40.51
2022-08-26T04:47:40.543Z,39.62
2022-08-26T04:52:43.215Z,39.22
2022-08-26T04:57:45.377Z,38.99
2022-08-26T05:02:48.303Z,38.95
2022-08-26T05:07:53.757Z,37.99
2022-08-26T05:12:55.843Z,35.92
2022-08-26T05:17:59.323Z,34.31
2022-08-26T05:23:03.353Z,32.69
2022-08-26T05:28:05.500Z,32.00
2022-08-26T05:33:09.866Z,30.88
2022-08-26T05:38:17.054Z,29.20
2022-08-26T05:43:20.032Z,28.02
2022-08-26T05:48:22.670Z,26.88
2022-08-26T05:53:26.609Z,26.66
2022-08-26T05:58:28.746Z,24.92
2022-08-26T06:03:33.421Z,24.05
2022-08-26T06:08:37.382Z,23.82
2022-08-26T06:13:40.053Z,22.95
2022-08-26T06:18:45.002Z,21.60
2022-08-26T06:24:07.678Z,20.87
2022-08-26T06:29:10.733Z,19.06
2022-08-26T06:34:18.778Z,18.19
2022-08-26T06:39:21.043Z,17.63
2022-08-26T06:44:23.590Z,16.87
2022-08-26T06:49:27.436Z,15.61
2022-08-26T06:54:31.842Z,14.28
2022-08-26T06:59:34.274Z,13.97
2022-08-26T07:04:36.612Z,14.53
2022-08-26T07:09:39.046Z,13.24
2022-08-26T07:14:47.262Z,12.45
2022-08-26T07:19:50.302Z,11.77
2022-08-26T07:24:52.459Z,11.38
2022-08-26T07:29:57.548Z,10.65
2022-08-26T07:35:00.579Z,9.94
2022-08-26T07:40:04.382Z,8.36
2022-08-26T07:45:07.274Z,7.92
2022-08-26T07:50:09.907Z,7.96
2022-08-26T07:55:12.169Z,8.23
2022-08-26T08:00:16.381Z,7.78
2022-08-26T08:05:22.366Z,7.82
2022-08-26T08:10:30.358Z,7.80
2022-08-26T08:15:35.258Z,8.82
2022-08-26T08:20:37.985Z,8.40
2022-08-26T08:25:40.105Z,8.45
2022-08-26T08:30:42.991Z,8.31
2022-08-26T08:35:46.240Z,8.90
2022-08-26T08:40:48.952Z,8.43
2022-08-26T08:45:58.081Z,7.93
2022-08-26T08:51:16.988Z,7.91
2022-08-26T08:56:29.133Z,7.96
2022-08-26T09:01:53.903Z,7.29
2022-08-26T09:06:59.675Z,7.92
2022-08-26T09:12:02.629Z,7.77
2022-08-26T09:17:22.925Z,7.35
2022-08-26T09:22:36.117Z,7.28
2022-08-26T09:27:38.198Z,7.37
2022-08-26T09:32:40.563Z,7.38
2022-08-26T09:43:22.295Z,7.13
2022-08-26T09:48:36.259Z,7.77
2022-08-26T09:53:51.913Z,6.85
2022-08-26T09:58:54.783Z,6.96
2022-08-26T10:04:19.998Z,6.57
2022-08-26T10:09:23.652Z,6.24
2022-08-26T10:14:34.812Z,6.25
2022-08-26T10:19:56.856Z,6.72
2022-08-26T10:25:03.867Z,5.87
2022-08-26T10:30:30.983Z,6.73
2022-08-26T10:35:37.232Z,7.10
2022-08-26T10:40:59.111Z,6.38
2022-08-26T10:46:12.540Z,6.45
2022-08-26T10:51:25.323Z,7.15
2022-08-26T10:56:49.928Z,7.23
2022-08-26T11:02:07.575Z,8.24
2022-08-26T11:07:32.172Z,9.45
2022-08-26T11:12:37.354Z,8.64
2022-08-26T11:17:48.691Z,7.67
2022-08-26T11:22:54.016Z,7.70
2022-08-26T11:27:59.844Z,7.84
2022-08-26T11:33:02.719Z,7.73
2022-08-26T11:38:25.572Z,7.67
2022-08-26T11:43:30.239Z,8.80
2022-08-26T11:48:40.440Z,9.39
2022-08-26T11:53:47.182Z,8.65
2022-08-26T11:59:00.051Z,9.85
2022-08-26T12:04:04.595Z,11.41
2022-08-26T12:09:13.672Z,12.52
2022-08-26T12:14:27.827Z,12.91
2022-08-26T12:19:33.911Z,13.27
2022-08-26T12:24:36.360Z,11.97
2022-08-26T12:29:38.447Z,10.75
2022-08-26T12:34:43.630Z,9.52
2022-08-26T12:39:47.033Z,8.05
2022-08-26T12:45:00.238Z,8.16
2022-08-26T12:50:24.003Z,7.96
2022-08-26T12:55:51.714Z,9.13
2022-08-26T13:01:18.798Z,9.16
2022-08-26T13:06:21.285Z,10.11
2022-08-26T13:11:34.376Z,10.64
2022-08-26T13:16:37.550Z,11.27
2022-08-26T13:21:54.582Z,10.45
2022-08-26T13:26:56.705Z,10.73
2022-08-26T13:31:59.762Z,10.50
2022-08-26T13:37:02.053Z,11.33
2022-08-26T13:42:04.399Z,11.31
2022-08-26T13:47:07.102Z,11.41
2022-08-26T13:52:09.834Z,11.92
2022-08-26T13:57:11.894Z,13.06
2022-08-26T14:02:14.779Z,12.71
2022-08-26T14:07:16.915Z,13.20
2022-08-26T14:12:19.016Z,13.74
2022-08-26T14:17:23.141Z,13.53
2022-08-26T14:22:25.248Z,13.91
2022-08-26T14:27:27.387Z,14.24
2022-08-26T14:32:30.052Z,14.47
2022-08-26T14:37:32.258Z,15.02
2022-08-26T14:42:34.843Z,15.15
2022-08-26T14:47:36.902Z,15.66
2022-08-26T14:52:57.686Z,16.28
2022-08-26T14:57:59.642Z,14.56
2022-08-26T15:03:01.899Z,16.52
2022-08-26T15:08:10.345Z,16.80
2022-08-26T15:13:12.841Z,16.95
2022-08-26T15:18:14.956Z,17.46
2022-08-26T15:23:17.108Z,17.46
2022-08-26T15:28:19.780Z,17.56
2022-08-26T15:33:24.503Z,17.74
2022-08-26T15:38:30.221Z,17.92
2022-08-26T15:43:32.497Z,18.03
2022-08-26T15:48:34.617Z,18.32
2022-08-26T15:53:36.683Z,18.62
2022-08-26T15:58:38.743Z,18.56
2022-08-26T16:03:43.059Z,19.10
2022-08-26T16:08:45.607Z,18.94
2022-08-26T16:13:47.947Z,19.43
2022-08-26T16:18:50.184Z,19.28
2022-08-26T16:23:52.468Z,19.80
2022-08-26T16:28:55.326Z,19.85
2022-08-26T16:33:57.884Z,20.11
2022-08-26T16:39:00.196Z,20.68
2022-08-26T16:44:02.748Z,20.64
2022-08-26T16:49:04.847Z,20.81
2022-08-26T16:54:08.968Z,21.01
2022-08-26T16:59:11.771Z,20.76
2022-08-26T17:04:13.908Z,21.40
2022-08-26T17:09:16.807Z,21.25
2022-08-26T17:14:20.015Z,21.69
2022-08-26T17:19:32.832Z,21.87
2022-08-26T17:24:43.277Z,21.96
2022-08-26T17:29:45.738Z,22.48
2022-08-26T17:34:47.889Z,22.83
2022-08-26T17:39:50.156Z,23.22
2022-08-26T17:44:52.447Z,23.34
2022-08-26T17:49:54.800Z,23.41
2022-08-26T17:54:57.970Z,23.78
2022-08-26T18:00:00.482Z,23.97
2022-08-26T18:05:03.571Z,24.49
2022-08-26T18:10:13.157Z,24.76
2022-08-26T18:15:17.005Z,24.89
2022-08-26T18:20:19.834Z,24.54
2022-08-26T18:25:22.132Z,25.03
2022-08-26T18:30:25.393Z,24.96
2022-08-26T18:35:30.003Z,24.92
2022-08-26T18:40:32.191Z,25.33
2022-08-26T18:45:35.970Z,24.99
2022-08-26T18:50:40.306Z,25.60
2022-08-26T18:55:42.742Z,25.43
2022-08-26T19:00:45.066Z,25.67
2022-08-26T19:05:47.219Z,26.16
2022-08-26T19:10:49.714Z,25.97
2022-08-26T19:15:51.871Z,26.56
2022-08-26T19:20:54.050Z,26.92
2022-08-26T19:25:58.585Z,26.60
2022-08-26T19:31:01.064Z,26.76
2022-08-26T19:36:06.331Z,26.93
2022-08-26T19:41:37.948Z,27.11
2022-08-26T19:46:40.477Z,27.32
2022-08-26T19:51:42.686Z,27.29
2022-08-26T19:56:47.995Z,27.75
2022-08-26T20:02:00.683Z,28.07
2022-08-26T20:07:05.663Z,28.46
2022-08-26T20:12:08.321Z,29.53
2022-08-26T20:17:11.157Z,29.21
2022-08-26T20:22:15.257Z,29.70
2022-08-26T20:27:17.428Z,28.74
2022-08-26T20:32:19.583Z,29.24
2022-08-26T20:37:22.035Z,29.12
2022-08-26T20:42:24.295Z,29.32
2022-08-26T20:47:26.549Z,29.46
2022-08-26T20:52:31.276Z,29.78
2022-08-26T20:57:34.003Z,32.26
2022-08-26T21:02:37.022Z,33.36
2022-08-26T21:07:39.490Z,33.01
2022-08-26T21:12:41.608Z,32.27
2022-08-26T21:17:44.210Z,32.97
2022-08-26T21:22:46.687Z,33.29
2022-08-26T21:27:48.860Z,33.68
2022-08-26T21:32:51.032Z,32.87
2022-08-26T21:37:53.111Z,32.95
2022-08-26T21:42:55.283Z,34.00
2022-08-26T21:47:57.568Z,32.85
2022-08-26T21:53:00.477Z,34.58
2022-08-26T21:58:02.691Z,34.30
2022-08-26T22:03:04.852Z,33.44
2022-08-26T22:08:06.959Z,34.89
2022-08-26T22:13:09.988Z,33.31
2022-08-26T22:18:12.123Z,33.84
2022-08-26T22:23:14.230Z,33.33
2022-08-26T22:28:17.530Z,34.93
2022-08-26T22:33:19.719Z,35.25
2022-08-26T22:38:24.001Z,35.75
2022-08-26T22:43:28.705Z,35.61
2022-08-26T22:48:31.265Z,35.66
2022-08-26T22:53:35.957Z,36.21
2022-08-26T22:58:43.696Z,37.69
2022-08-26T23:03:46.105Z,37.15
2022-08-26T23:08:48.297Z,36.96
2022-08-26T23:13:50.390Z,36.81
2022-08-26T23:18:53.715Z,36.56
2022-08-26T23:23:56.423Z,35.83
2022-08-26T23:28:58.586Z,36.37
2022-08-26T23:34:19.198Z,36.43
2022-08-26T23:39:21.442Z,37.24
2022-08-26T23:44:25.981Z,37.30
2022-08-26T23:49:28.725Z,38.01
2022-08-26T23:54:32.978Z,39.28
2022-08-26T23:59:37.011Z,39.31
